sensor_id;sensor_type;location;lat;lon;timestamp;temperature;humidity
20481;DHT22;10399;50.754;3.366;2022-11-23T00:01:26;10.50;99.90
20481;DHT22;10399;50.754;3.366;2022-11-23T00:03:57;10.50;99.90
20481;DHT22;10399;50.754;3.366;2022-11-23T00:06:25;10.60;99.90
20481;DHT22;10399;50.754;3.366;2022-11-23T00:08:53;10.60;99.90
20481;DHT22;10399;50.754;3.366;2022-11-23T00:11:22;10.60;99.90
20481;DHT22;10399;50.754;3.366;2022-11-23T00:13:50;10.60;99.90
20481;DHT22;10399;50.754;3.366;2022-11-23T00:16:23;10.50;99.90
20481;DHT22;10399;50.754;3.366;2022-11-23T00:18:58;10.50;99.90
20481;DHT22;10399;50.754;3.366;2022-11-23T00:21:27;10.40;99.90
20481;DHT22;10399;50.754;3.366;2022-11-23T00:23:55;10.40;99.90
20481;DHT22;10399;50.754;3.366;2022-11-23T00:26:22;10.40;99.90
20481;DHT22;10399;50.754;3.366;2022-11-23T00:28:50;10.30;99.90
20481;DHT22;10399;50.754;3.366;2022-11-23T00:31:18;10.40;99.90
20481;DHT22;10399;50.754;3.366;2022-11-23T00:33:52;10.30;99.90
20481;DHT22;10399;50.754;3.366;2022-11-23T00:36:21;10.40;99.90
20481;DHT22;10399;50.754;3.366;2022-11-23T00:38:48;10.30;99.90
20481;DHT22;10399;50.754;3.366;2022-11-23T00:41:18;10.20;99.90
20481;DHT22;10399;50.754;3.366;2022-11-23T00:43:45;10.40;99.90
20481;DHT22;10399;50.754;3.366;2022-11-23T00:48:42;10.40;99.90
20481;DHT22;10399;50.754;3.366;2022-11-23T00:51:12;10.50;99.90
20481;DHT22;10399;50.754;3.366;2022-11-23T00:53:40;10.50;99.90
20481;DHT22;10399;50.754;3.366;2022-11-23T00:56:08;10.40;99.90
20481;DHT22;10399;50.754;3.366;2022-11-23T00:58:35;10.50;99.90
20481;DHT22;10399;50.754;3.366;2022-11-23T01:01:11;10.40;99.90
20481;DHT22;10399;50.754;3.366;2022-11-23T01:03:45;10.50;99.90
20481;DHT22;10399;50.754;3.366;2022-11-23T01:06:15;10.40;99.90
20481;DHT22;10399;50.754;3.366;2022-11-23T01:08:49;10.30;99.90
20481;DHT22;10399;50.754;3.366;2022-11-23T01:11:18;10.40;99.90
20481;DHT22;10399;50.754;3.366;2022-11-23T01:13:46;10.30;99.90
20481;DHT22;10399;50.754;3.366;2022-11-23T01:16:19;10.10;99.90
20481;DHT22;10399;50.754;3.366;2022-11-23T01:19:06;10.00;99.90
20481;DHT22;10399;50.754;3.366;2022-11-23T01:21:34;10.10;99.90
20481;DHT22;10399;50.754;3.366;2022-11-23T01:24:07;10.10;99.90
20481;DHT22;10399;50.754;3.366;2022-11-23T01:26:34;10.10;99.90
20481;DHT22;10399;50.754;3.366;2022-11-23T01:29:01;10.00;99.90
20481;DHT22;10399;50.754;3.366;2022-11-23T01:31:29;10.00;99.90
20481;DHT22;10399;50.754;3.366;2022-11-23T01:33:58;10.00;99.90
20481;DHT22;10399;50.754;3.366;2022-11-23T01:36:32;9.80;99.90
20481;DHT22;10399;50.754;3.366;2022-11-23T01:39:03;10.00;99.90
20481;DHT22;10399;50.754;3.366;2022-11-23T01:41:36;10.00;99.90
20481;DHT22;10399;50.754;3.366;2022-11-23T01:44:26;10.10;99.90
20481;DHT22;10399;50.754;3.366;2022-11-23T01:47:00;10.00;99.90
20481;DHT22;10399;50.754;3.366;2022-11-23T01:49:42;10.00;99.90
20481;DHT22;10399;50.754;3.366;2022-11-23T01:52:16;9.90;99.90
20481;DHT22;10399;50.754;3.366;2022-11-23T01:54:47;9.90;99.90
20481;DHT22;10399;50.754;3.366;2022-11-23T01:57:41;9.90;99.90
20481;DHT22;10399;50.754;3.366;2022-11-23T02:00:10;9.90;99.90
20481;DHT22;10399;50.754;3.366;2022-11-23T02:02:46;9.90;99.90
20481;DHT22;10399;50.754;3.366;2022-11-23T02:05:17;10.00;99.90
20481;DHT22;10399;50.754;3.366;2022-11-23T02:07:47;10.00;99.90
20481;DHT22;10399;50.754;3.366;2022-11-23T02:10:16;9.90;99.90
20481;DHT22;10399;50.754;3.366;2022-11-23T02:12:42;9.80;99.90
20481;DHT22;10399;50.754;3.366;2022-11-23T02:15:10;9.70;99.90
20481;DHT22;10399;50.754;3.366;2022-11-23T02:17:37;9.70;99.90
20481;DHT22;10399;50.754;3.366;2022-11-23T02:20:07;9.70;99.90
20481;DHT22;10399;50.754;3.366;2022-11-23T02:22:57;9.70;99.90
20481;DHT22;10399;50.754;3.366;2022-11-23T02:25:39;9.80;99.90
20481;DHT22;10399;50.754;3.366;2022-11-23T02:28:16;9.80;99.90
20481;DHT22;10399;50.754;3.366;2022-11-23T02:30:50;9.70;99.90
20481;DHT22;10399;50.754;3.366;2022-11-23T02:33:18;9.70;99.90
20481;DHT22;10399;50.754;3.366;2022-11-23T02:35:57;9.60;99.90
20481;DHT22;10399;50.754;3.366;2022-11-23T02:38:30;9.70;99.90
20481;DHT22;10399;50.754;3.366;2022-11-23T02:40:58;9.70;99.90
20481;DHT22;10399;50.754;3.366;2022-11-23T02:43:26;9.70;99.90
20481;DHT22;10399;50.754;3.366;2022-11-23T02:48:21;9.80;99.90
20481;DHT22;10399;50.754;3.366;2022-11-23T02:50:49;9.90;99.90
20481;DHT22;10399;50.754;3.366;2022-11-23T02:53:16;9.80;99.90
20481;DHT22;10399;50.754;3.366;2022-11-23T02:55:44;9.80;99.90
20481;DHT22;10399;50.754;3.366;2022-11-23T02:58:11;9.60;99.90
20481;DHT22;10399;50.754;3.366;2022-11-23T03:00:39;9.70;99.90
20481;DHT22;10399;50.754;3.366;2022-11-23T03:03:06;9.60;99.90
20481;DHT22;10399;50.754;3.366;2022-11-23T03:05:33;9.50;99.90
20481;DHT22;10399;50.754;3.366;2022-11-23T03:08:00;9.60;99.90
20481;DHT22;10399;50.754;3.366;2022-11-23T03:10:28;9.60;99.90
20481;DHT22;10399;50.754;3.366;2022-11-23T03:12:55;9.60;99.90
20481;DHT22;10399;50.754;3.366;2022-11-23T03:15:24;9.70;99.90
20481;DHT22;10399;50.754;3.366;2022-11-23T03:17:51;9.80;99.90
20481;DHT22;10399;50.754;3.366;2022-11-23T03:20:18;9.60;99.90
20481;DHT22;10399;50.754;3.366;2022-11-23T03:22:46;9.70;99.90
20481;DHT22;10399;50.754;3.366;2022-11-23T03:25:13;9.60;99.90
20481;DHT22;10399;50.754;3.366;2022-11-23T03:27:40;9.60;99.90
20481;DHT22;10399;50.754;3.366;2022-11-23T03:30:08;9.70;99.90
20481;DHT22;10399;50.754;3.366;2022-11-23T03:32:35;9.80;99.90
20481;DHT22;10399;50.754;3.366;2022-11-23T03:35:03;9.80;99.90
20481;DHT22;10399;50.754;3.366;2022-11-23T03:37:31;9.80;99.90
20481;DHT22;10399;50.754;3.366;2022-11-23T03:39:58;9.80;99.90
20481;DHT22;10399;50.754;3.366;2022-11-23T03:42:25;9.80;99.90
20481;DHT22;10399;50.754;3.366;2022-11-23T03:44:53;9.70;99.90
20481;DHT22;10399;50.754;3.366;2022-11-23T03:47:22;9.80;99.90
20481;DHT22;10399;50.754;3.366;2022-11-23T03:49:49;9.70;99.90
20481;DHT22;10399;50.754;3.366;2022-11-23T03:52:16;9.70;99.90
20481;DHT22;10399;50.754;3.366;2022-11-23T03:54:43;9.80;99.90
20481;DHT22;10399;50.754;3.366;2022-11-23T03:57:10;9.80;99.90
20481;DHT22;10399;50.754;3.366;2022-11-23T03:59:37;9.60;99.90
20481;DHT22;10399;50.754;3.366;2022-11-23T04:02:04;9.70;99.90
20481;DHT22;10399;50.754;3.366;2022-11-23T04:04:34;9.70;99.90
20481;DHT22;10399;50.754;3.366;2022-11-23T04:07:02;9.70;99.90
20481;DHT22;10399;50.754;3.366;2022-11-23T04:09:29;9.70;99.90
20481;DHT22;10399;50.754;3.366;2022-11-23T04:11:56;9.60;99.90
20481;DHT22;10399;50.754;3.366;2022-11-23T04:14:23;9.60;99.90
20481;DHT22;10399;50.754;3.366;2022-11-23T04:16:51;9.60;99.90
20481;DHT22;10399;50.754;3.366;2022-11-23T04:19:18;9.60;99.90
20481;DHT22;10399;50.754;3.366;2022-11-23T04:21:45;9.60;99.90
20481;DHT22;10399;50.754;3.366;2022-11-23T04:24:12;9.70;99.90
20481;DHT22;10399;50.754;3.366;2022-11-23T04:26:39;9.70;99.90
20481;DHT22;10399;50.754;3.366;2022-11-23T04:29:06;9.60;99.90
20481;DHT22;10399;50.754;3.366;2022-11-23T04:31:33;9.70;99.90
20481;DHT22;10399;50.754;3.366;2022-11-23T04:34:00;9.70;99.90
20481;DHT22;10399;50.754;3.366;2022-11-23T04:36:27;9.70;99.90
20481;DHT22;10399;50.754;3.366;2022-11-23T04:38:54;9.80;99.90
20481;DHT22;10399;50.754;3.366;2022-11-23T04:41:22;9.70;99.90
20481;DHT22;10399;50.754;3.366;2022-11-23T04:43:50;9.70;99.90
20481;DHT22;10399;50.754;3.366;2022-11-23T04:46:18;9.70;99.90
20481;DHT22;10399;50.754;3.366;2022-11-23T04:48:45;9.60;99.90
20481;DHT22;10399;50.754;3.366;2022-11-23T04:51:12;9.70;99.90
20481;DHT22;10399;50.754;3.366;2022-11-23T04:53:39;9.60;99.90
20481;DHT22;10399;50.754;3.366;2022-11-23T04:56:07;9.70;99.90
20481;DHT22;10399;50.754;3.366;2022-11-23T04:58:34;9.70;99.90
20481;DHT22;10399;50.754;3.366;2022-11-23T05:01:03;9.70;99.90
20481;DHT22;10399;50.754;3.366;2022-11-23T05:03:31;9.50;99.90
20481;DHT22;10399;50.754;3.366;2022-11-23T05:06:01;9.30;99.90
20481;DHT22;10399;50.754;3.366;2022-11-23T05:08:29;9.20;99.90
20481;DHT22;10399;50.754;3.366;2022-11-23T05:10:57;9.20;99.90
20481;DHT22;10399;50.754;3.366;2022-11-23T05:13:24;9.10;99.90
20481;DHT22;10399;50.754;3.366;2022-11-23T05:15:51;9.10;99.90
20481;DHT22;10399;50.754;3.366;2022-11-23T05:18:19;9.00;99.90
20481;DHT22;10399;50.754;3.366;2022-11-23T05:20:46;8.80;99.90
20481;DHT22;10399;50.754;3.366;2022-11-23T05:23:13;8.60;99.90
20481;DHT22;10399;50.754;3.366;2022-11-23T05:25:40;8.70;99.90
20481;DHT22;10399;50.754;3.366;2022-11-23T05:28:14;8.80;99.90
20481;DHT22;10399;50.754;3.366;2022-11-23T05:31:02;8.80;99.90
20481;DHT22;10399;50.754;3.366;2022-11-23T05:33:29;8.80;99.90
20481;DHT22;10399;50.754;3.366;2022-11-23T05:35:56;8.90;99.90
20481;DHT22;10399;50.754;3.366;2022-11-23T05:38:23;8.80;99.90
20481;DHT22;10399;50.754;3.366;2022-11-23T05:40:51;8.80;99.90
20481;DHT22;10399;50.754;3.366;2022-11-23T05:43:21;8.70;99.90
20481;DHT22;10399;50.754;3.366;2022-11-23T05:45:48;8.40;99.90
20481;DHT22;10399;50.754;3.366;2022-11-23T05:48:16;8.40;99.90
20481;DHT22;10399;50.754;3.366;2022-11-23T05:50:43;8.40;99.90
20481;DHT22;10399;50.754;3.366;2022-11-23T05:53:13;8.30;99.90
20481;DHT22;10399;50.754;3.366;2022-11-23T05:55:40;8.30;99.90
20481;DHT22;10399;50.754;3.366;2022-11-23T05:58:07;8.40;99.90
20481;DHT22;10399;50.754;3.366;2022-11-23T06:00:34;8.30;99.90
20481;DHT22;10399;50.754;3.366;2022-11-23T06:03:02;8.30;99.90
20481;DHT22;10399;50.754;3.366;2022-11-23T06:05:29;8.30;99.90
20481;DHT22;10399;50.754;3.366;2022-11-23T06:07:58;8.20;99.90
20481;DHT22;10399;50.754;3.366;2022-11-23T06:10:25;8.10;99.90
20481;DHT22;10399;50.754;3.366;2022-11-23T06:12:52;8.20;99.90
20481;DHT22;10399;50.754;3.366;2022-11-23T06:15:20;8.30;99.90
20481;DHT22;10399;50.754;3.366;2022-11-23T06:17:47;8.30;99.90
20481;DHT22;10399;50.754;3.366;2022-11-23T06:20:14;8.20;99.90
20481;DHT22;10399;50.754;3.366;2022-11-23T06:22:41;8.20;99.90
20481;DHT22;10399;50.754;3.366;2022-11-23T06:25:08;8.20;99.90
20481;DHT22;10399;50.754;3.366;2022-11-23T06:27:35;8.00;99.90
20481;DHT22;10399;50.754;3.366;2022-11-23T06:30:02;8.10;99.90
20481;DHT22;10399;50.754;3.366;2022-11-23T06:32:30;8.10;99.90
20481;DHT22;10399;50.754;3.366;2022-11-23T06:34:57;8.20;99.90
20481;DHT22;10399;50.754;3.366;2022-11-23T06:37:26;8.00;99.90
20481;DHT22;10399;50.754;3.366;2022-11-23T06:39:53;8.00;99.90
20481;DHT22;10399;50.754;3.366;2022-11-23T06:42:20;8.00;99.90
20481;DHT22;10399;50.754;3.366;2022-11-23T06:45:06;7.70;99.90
20481;DHT22;10399;50.754;3.366;2022-11-23T06:47:34;7.70;99.90
20481;DHT22;10399;50.754;3.366;2022-11-23T06:50:01;7.70;99.90
20481;DHT22;10399;50.754;3.366;2022-11-23T06:52:28;7.70;99.90
20481;DHT22;10399;50.754;3.366;2022-11-23T06:54:55;7.60;99.90
20481;DHT22;10399;50.754;3.366;2022-11-23T06:57:22;7.50;99.90
20481;DHT22;10399;50.754;3.366;2022-11-23T06:59:49;7.60;99.90
20481;DHT22;10399;50.754;3.366;2022-11-23T07:02:17;7.40;99.90
20481;DHT22;10399;50.754;3.366;2022-11-23T07:04:44;7.30;99.90
20481;DHT22;10399;50.754;3.366;2022-11-23T07:07:11;7.30;99.90
20481;DHT22;10399;50.754;3.366;2022-11-23T07:09:38;7.40;99.90
20481;DHT22;10399;50.754;3.366;2022-11-23T07:12:05;7.40;99.90
20481;DHT22;10399;50.754;3.366;2022-11-23T07:14:33;7.40;99.90
20481;DHT22;10399;50.754;3.366;2022-11-23T07:17:00;7.40;99.90
20481;DHT22;10399;50.754;3.366;2022-11-23T07:19:27;7.30;99.90
20481;DHT22;10399;50.754;3.366;2022-11-23T07:21:54;7.40;99.90
20481;DHT22;10399;50.754;3.366;2022-11-23T07:24:22;7.60;99.90
20481;DHT22;10399;50.754;3.366;2022-11-23T07:26:49;7.60;99.90
20481;DHT22;10399;50.754;3.366;2022-11-23T07:29:16;7.50;99.90
20481;DHT22;10399;50.754;3.366;2022-11-23T07:31:43;7.50;99.90
20481;DHT22;10399;50.754;3.366;2022-11-23T07:34:10;7.60;99.90
20481;DHT22;10399;50.754;3.366;2022-11-23T07:36:37;7.60;99.90
20481;DHT22;10399;50.754;3.366;2022-11-23T07:39:04;7.60;99.90
20481;DHT22;10399;50.754;3.366;2022-11-23T07:41:32;7.70;99.90
20481;DHT22;10399;50.754;3.366;2022-11-23T07:43:59;7.60;99.90
20481;DHT22;10399;50.754;3.366;2022-11-23T07:46:29;7.60;99.90
20481;DHT22;10399;50.754;3.366;2022-11-23T07:48:56;7.70;99.90
20481;DHT22;10399;50.754;3.366;2022-11-23T07:51:28;7.80;99.90
20481;DHT22;10399;50.754;3.366;2022-11-23T07:53:55;7.90;99.90
20481;DHT22;10399;50.754;3.366;2022-11-23T07:56:23;7.90;99.90
20481;DHT22;10399;50.754;3.366;2022-11-23T07:58:50;8.00;99.90
20481;DHT22;10399;50.754;3.366;2022-11-23T08:01:18;8.00;99.90
20481;DHT22;10399;50.754;3.366;2022-11-23T08:03:47;8.10;99.90
20481;DHT22;10399;50.754;3.366;2022-11-23T08:06:15;8.10;99.90
20481;DHT22;10399;50.754;3.366;2022-11-23T08:08:42;8.10;99.90
20481;DHT22;10399;50.754;3.366;2022-11-23T08:11:09;8.20;99.90
20481;DHT22;10399;50.754;3.366;2022-11-23T08:13:40;8.30;99.90
20481;DHT22;10399;50.754;3.366;2022-11-23T08:16:07;8.30;99.90
20481;DHT22;10399;50.754;3.366;2022-11-23T08:18:34;8.40;99.90
20481;DHT22;10399;50.754;3.366;2022-11-23T08:21:02;8.40;99.90
20481;DHT22;10399;50.754;3.366;2022-11-23T08:23:29;8.50;99.90
20481;DHT22;10399;50.754;3.366;2022-11-23T08:25:56;8.50;99.90
20481;DHT22;10399;50.754;3.366;2022-11-23T08:28:23;8.50;99.90
20481;DHT22;10399;50.754;3.366;2022-11-23T08:30:50;8.50;99.90
20481;DHT22;10399;50.754;3.366;2022-11-23T08:33:17;8.50;99.90
20481;DHT22;10399;50.754;3.366;2022-11-23T08:35:45;8.60;99.90
20481;DHT22;10399;50.754;3.366;2022-11-23T08:38:12;8.60;99.90
20481;DHT22;10399;50.754;3.366;2022-11-23T08:40:39;8.70;99.90
20481;DHT22;10399;50.754;3.366;2022-11-23T08:43:08;8.80;99.90
20481;DHT22;10399;50.754;3.366;2022-11-23T08:45:35;8.70;99.90
20481;DHT22;10399;50.754;3.366;2022-11-23T08:48:03;8.80;99.90
20481;DHT22;10399;50.754;3.366;2022-11-23T08:50:31;8.80;99.90
20481;DHT22;10399;50.754;3.366;2022-11-23T08:53:00;8.70;99.90
20481;DHT22;10399;50.754;3.366;2022-11-23T08:55:27;8.80;99.90
20481;DHT22;10399;50.754;3.366;2022-11-23T08:57:58;8.90;99.90
20481;DHT22;10399;50.754;3.366;2022-11-23T09:00:26;8.90;99.90
20481;DHT22;10399;50.754;3.366;2022-11-23T09:02:53;8.90;99.90
20481;DHT22;10399;50.754;3.366;2022-11-23T09:05:20;8.90;99.90
20481;DHT22;10399;50.754;3.366;2022-11-23T09:07:47;9.00;99.90
20481;DHT22;10399;50.754;3.366;2022-11-23T09:10:15;9.00;99.90
20481;DHT22;10399;50.754;3.366;2022-11-23T09:12:46;9.10;99.90
20481;DHT22;10399;50.754;3.366;2022-11-23T09:15:13;9.00;99.90
20481;DHT22;10399;50.754;3.366;2022-11-23T09:17:40;9.20;99.90
20481;DHT22;10399;50.754;3.366;2022-11-23T09:20:08;9.10;99.90
20481;DHT22;10399;50.754;3.366;2022-11-23T09:22:36;9.20;99.90
20481;DHT22;10399;50.754;3.366;2022-11-23T09:25:06;9.20;99.90
20481;DHT22;10399;50.754;3.366;2022-11-23T09:27:37;9.20;99.90
20481;DHT22;10399;50.754;3.366;2022-11-23T09:30:06;9.20;99.90
20481;DHT22;10399;50.754;3.366;2022-11-23T09:32:33;9.10;99.90
20481;DHT22;10399;50.754;3.366;2022-11-23T09:35:02;9.10;99.90
20481;DHT22;10399;50.754;3.366;2022-11-23T09:37:32;9.00;99.90
20481;DHT22;10399;50.754;3.366;2022-11-23T09:39:59;9.10;99.90
20481;DHT22;10399;50.754;3.366;2022-11-23T09:42:59;9.00;99.90
20481;DHT22;10399;50.754;3.366;2022-11-23T09:46:06;9.20;99.90
20481;DHT22;10399;50.754;3.366;2022-11-23T09:48:52;9.40;99.90
20481;DHT22;10399;50.754;3.366;2022-11-23T09:51:23;9.40;99.90
20481;DHT22;10399;50.754;3.366;2022-11-23T09:54:04;9.60;99.90
20481;DHT22;10399;50.754;3.366;2022-11-23T09:56:36;9.60;99.90
20481;DHT22;10399;50.754;3.366;2022-11-23T09:59:32;9.70;99.90
20481;DHT22;10399;50.754;3.366;2022-11-23T10:02:02;9.80;99.90
20481;DHT22;10399;50.754;3.366;2022-11-23T10:04:33;9.80;99.90
20481;DHT22;10399;50.754;3.366;2022-11-23T10:10:09;9.80;99.90
20481;DHT22;10399;50.754;3.366;2022-11-23T10:18:47;9.80;99.90
20481;DHT22;10399;50.754;3.366;2022-11-23T10:26:11;10.00;99.90
20481;DHT22;10399;50.754;3.366;2022-11-23T10:28:40;10.10;99.90
20481;DHT22;10399;50.754;3.366;2022-11-23T10:31:11;10.10;99.90
20481;DHT22;10399;50.754;3.366;2022-11-23T10:36:20;10.10;99.90
20481;DHT22;10399;50.754;3.366;2022-11-23T10:38:56;10.00;99.90
20481;DHT22;10399;50.754;3.366;2022-11-23T10:41:24;10.10;99.90
20481;DHT22;10399;50.754;3.366;2022-11-23T10:43:56;10.20;99.90
20481;DHT22;10399;50.754;3.366;2022-11-23T10:46:37;10.10;99.90
20481;DHT22;10399;50.754;3.366;2022-11-23T10:49:09;10.00;99.90
20481;DHT22;10399;50.754;3.366;2022-11-23T10:51:39;10.00;99.90
20481;DHT22;10399;50.754;3.366;2022-11-23T10:56:47;10.10;99.90
20481;DHT22;10399;50.754;3.366;2022-11-23T10:59:32;10.00;99.90
20481;DHT22;10399;50.754;3.366;2022-11-23T11:02:09;10.10;99.90
20481;DHT22;10399;50.754;3.366;2022-11-23T11:04:37;10.00;99.90
20481;DHT22;10399;50.754;3.366;2022-11-23T11:07:28;10.10;99.90
20481;DHT22;10399;50.754;3.366;2022-11-23T11:09:58;10.00;99.90
20481;DHT22;10399;50.754;3.366;2022-11-23T11:12:28;9.90;99.90
20481;DHT22;10399;50.754;3.366;2022-11-23T11:15:01;9.90;99.90
20481;DHT22;10399;50.754;3.366;2022-11-23T11:17:37;9.80;99.90
20481;DHT22;10399;50.754;3.366;2022-11-23T11:20:30;9.80;99.90
20481;DHT22;10399;50.754;3.366;2022-11-23T11:23:03;9.80;99.90
20481;DHT22;10399;50.754;3.366;2022-11-23T11:25:41;9.90;99.90
20481;DHT22;10399;50.754;3.366;2022-11-23T11:28:35;9.80;99.90
20481;DHT22;10399;50.754;3.366;2022-11-23T11:34:30;9.90;99.90
20481;DHT22;10399;50.754;3.366;2022-11-23T11:39:51;9.50;99.90
20481;DHT22;10399;50.754;3.366;2022-11-23T11:42:26;9.40;99.90
20481;DHT22;10399;50.754;3.366;2022-11-23T11:44:58;9.40;99.90
20481;DHT22;10399;50.754;3.366;2022-11-23T11:47:40;9.40;99.90
20481;DHT22;10399;50.754;3.366;2022-11-23T11:50:32;9.30;99.90
20481;DHT22;10399;50.754;3.366;2022-11-23T11:53:11;9.30;99.90
20481;DHT22;10399;50.754;3.366;2022-11-23T11:58:16;9.30;99.90
20481;DHT22;10399;50.754;3.366;2022-11-23T12:00:45;9.20;99.90
20481;DHT22;10399;50.754;3.366;2022-11-23T12:06:07;9.30;99.90
20481;DHT22;10399;50.754;3.366;2022-11-23T12:08:45;9.30;99.90
20481;DHT22;10399;50.754;3.366;2022-11-23T12:11:13;9.40;99.90
20481;DHT22;10399;50.754;3.366;2022-11-23T12:13:43;9.40;99.90
20481;DHT22;10399;50.754;3.366;2022-11-23T12:19:23;9.30;99.90
20481;DHT22;10399;50.754;3.366;2022-11-23T12:33:29;9.40;99.90
20481;DHT22;10399;50.754;3.366;2022-11-23T12:38:55;9.30;99.90
20481;DHT22;10399;50.754;3.366;2022-11-23T12:41:40;9.40;99.90
20481;DHT22;10399;50.754;3.366;2022-11-23T12:58:41;9.40;99.90
20481;DHT22;10399;50.754;3.366;2022-11-23T13:01:19;9.40;99.90
20481;DHT22;10399;50.754;3.366;2022-11-23T13:07:12;9.40;99.90
20481;DHT22;10399;50.754;3.366;2022-11-23T13:23:51;9.30;99.90
20481;DHT22;10399;50.754;3.366;2022-11-23T13:26:26;9.50;99.90
20481;DHT22;10399;50.754;3.366;2022-11-23T13:29:02;9.50;99.90
20481;DHT22;10399;50.754;3.366;2022-11-23T13:34:57;9.60;99.90
20481;DHT22;10399;50.754;3.366;2022-11-23T13:37:24;9.60;99.90
20481;DHT22;10399;50.754;3.366;2022-11-23T13:42:25;9.60;99.90
20481;DHT22;10399;50.754;3.366;2022-11-23T13:45:31;9.60;99.90
20481;DHT22;10399;50.754;3.366;2022-11-23T13:48:09;9.50;99.90
20481;DHT22;10399;50.754;3.366;2022-11-23T13:51:03;9.60;99.90
20481;DHT22;10399;50.754;3.366;2022-11-23T13:53:38;9.70;99.90
20481;DHT22;10399;50.754;3.366;2022-11-23T13:56:35;9.80;99.90
20481;DHT22;10399;50.754;3.366;2022-11-23T13:59:27;9.90;99.90
20481;DHT22;10399;50.754;3.366;2022-11-23T14:04:41;10.20;99.90
20481;DHT22;10399;50.754;3.366;2022-11-23T14:07:25;10.30;99.90
20481;DHT22;10399;50.754;3.366;2022-11-23T14:10:05;10.50;99.90
20481;DHT22;10399;50.754;3.366;2022-11-23T14:12:56;10.90;99.90
20481;DHT22;10399;50.754;3.366;2022-11-23T14:15:29;11.20;99.90
20481;DHT22;10399;50.754;3.366;2022-11-23T14:18:32;11.50;99.90
20481;DHT22;10399;50.754;3.366;2022-11-23T14:40:29;12.00;99.90
20481;DHT22;10399;50.754;3.366;2022-11-23T14:43:00;12.00;99.90
20481;DHT22;10399;50.754;3.366;2022-11-23T14:45:30;11.70;99.90
20481;DHT22;10399;50.754;3.366;2022-11-23T14:48:22;11.80;99.90
20481;DHT22;10399;50.754;3.366;2022-11-23T14:51:05;11.70;99.90
20481;DHT22;10399;50.754;3.366;2022-11-23T14:53:47;11.50;99.90
20481;DHT22;10399;50.754;3.366;2022-11-23T14:59:01;11.40;99.90
20481;DHT22;10399;50.754;3.366;2022-11-23T15:01:28;11.40;99.90
20481;DHT22;10399;50.754;3.366;2022-11-23T15:04:07;11.30;99.90
20481;DHT22;10399;50.754;3.366;2022-11-23T15:06:39;11.30;99.90
20481;DHT22;10399;50.754;3.366;2022-11-23T15:12:07;11.20;99.90
20481;DHT22;10399;50.754;3.366;2022-11-23T15:14:34;11.10;99.90
20481;DHT22;10399;50.754;3.366;2022-11-23T15:17:16;11.10;99.90
20481;DHT22;10399;50.754;3.366;2022-11-23T15:19:52;11.30;99.90
20481;DHT22;10399;50.754;3.366;2022-11-23T15:22:20;11.40;99.90
20481;DHT22;10399;50.754;3.366;2022-11-23T15:24:47;11.10;99.90
20481;DHT22;10399;50.754;3.366;2022-11-23T15:27:18;11.00;99.90
20481;DHT22;10399;50.754;3.366;2022-11-23T15:29:54;11.00;99.90
20481;DHT22;10399;50.754;3.366;2022-11-23T15:32:29;11.00;99.90
20481;DHT22;10399;50.754;3.366;2022-11-23T15:35:03;11.00;99.90
20481;DHT22;10399;50.754;3.366;2022-11-23T15:37:45;10.80;99.90
20481;DHT22;10399;50.754;3.366;2022-11-23T15:40:15;10.90;99.90
20481;DHT22;10399;50.754;3.366;2022-11-23T15:42:47;11.00;99.90
20481;DHT22;10399;50.754;3.366;2022-11-23T15:45:41;11.00;99.90
20481;DHT22;10399;50.754;3.366;2022-11-23T15:48:27;10.80;99.90
20481;DHT22;10399;50.754;3.366;2022-11-23T15:50:57;10.90;99.90
20481;DHT22;10399;50.754;3.366;2022-11-23T15:53:28;11.00;99.90
20481;DHT22;10399;50.754;3.366;2022-11-23T15:56:04;10.90;99.90
20481;DHT22;10399;50.754;3.366;2022-11-23T15:58:32;10.90;99.90
20481;DHT22;10399;50.754;3.366;2022-11-23T16:01:27;11.00;99.90
20481;DHT22;10399;50.754;3.366;2022-11-23T16:03:58;11.00;99.90
20481;DHT22;10399;50.754;3.366;2022-11-23T16:06:34;11.00;99.90
20481;DHT22;10399;50.754;3.366;2022-11-23T16:09:02;10.90;99.90
20481;DHT22;10399;50.754;3.366;2022-11-23T16:11:43;10.90;99.90
20481;DHT22;10399;50.754;3.366;2022-11-23T16:14:17;10.70;99.90
20481;DHT22;10399;50.754;3.366;2022-11-23T16:17:11;10.70;99.90
20481;DHT22;10399;50.754;3.366;2022-11-23T16:19:46;10.80;99.90
20481;DHT22;10399;50.754;3.366;2022-11-23T16:22:54;10.80;99.90
20481;DHT22;10399;50.754;3.366;2022-11-23T16:25:31;10.80;99.90
20481;DHT22;10399;50.754;3.366;2022-11-23T16:28:01;10.90;99.90
20481;DHT22;10399;50.754;3.366;2022-11-23T16:30:37;10.90;99.90
20481;DHT22;10399;50.754;3.366;2022-11-23T16:33:16;11.00;99.90
20481;DHT22;10399;50.754;3.366;2022-11-23T16:35:43;10.90;99.90
20481;DHT22;10399;50.754;3.366;2022-11-23T16:38:11;11.00;99.90
20481;DHT22;10399;50.754;3.366;2022-11-23T16:40:42;11.00;99.90
20481;DHT22;10399;50.754;3.366;2022-11-23T16:43:11;11.00;99.90
20481;DHT22;10399;50.754;3.366;2022-11-23T16:45:44;10.80;99.90
20481;DHT22;10399;50.754;3.366;2022-11-23T16:50:52;11.00;99.90
20481;DHT22;10399;50.754;3.366;2022-11-23T16:53:20;10.90;99.90
20481;DHT22;10399;50.754;3.366;2022-11-23T16:55:51;10.90;99.90
20481;DHT22;10399;50.754;3.366;2022-11-23T16:58:19;10.80;99.90
20481;DHT22;10399;50.754;3.366;2022-11-23T17:00:46;10.80;99.90
20481;DHT22;10399;50.754;3.366;2022-11-23T17:03:19;10.70;99.90
20481;DHT22;10399;50.754;3.366;2022-11-23T17:05:47;10.80;99.90
20481;DHT22;10399;50.754;3.366;2022-11-23T17:08:14;10.90;99.90
20481;DHT22;10399;50.754;3.366;2022-11-23T17:10:49;10.90;99.90
20481;DHT22;10399;50.754;3.366;2022-11-23T17:13:23;10.90;99.90
20481;DHT22;10399;50.754;3.366;2022-11-23T17:15:50;10.70;99.90
20481;DHT22;10399;50.754;3.366;2022-11-23T17:18:18;10.70;99.90
20481;DHT22;10399;50.754;3.366;2022-11-23T17:20:45;10.70;99.90
20481;DHT22;10399;50.754;3.366;2022-11-23T17:23:13;10.60;99.90
20481;DHT22;10399;50.754;3.366;2022-11-23T17:25:40;10.70;99.90
20481;DHT22;10399;50.754;3.366;2022-11-23T17:28:14;10.50;99.90
20481;DHT22;10399;50.754;3.366;2022-11-23T17:30:44;10.60;99.90
20481;DHT22;10399;50.754;3.366;2022-11-23T17:33:12;10.50;99.90
20481;DHT22;10399;50.754;3.366;2022-11-23T17:35:42;10.60;99.90
20481;DHT22;10399;50.754;3.366;2022-11-23T17:38:18;10.60;99.90
20481;DHT22;10399;50.754;3.366;2022-11-23T17:40:50;10.50;99.90
20481;DHT22;10399;50.754;3.366;2022-11-23T17:43:20;10.60;99.90
20481;DHT22;10399;50.754;3.366;2022-11-23T17:45:50;10.60;99.90
20481;DHT22;10399;50.754;3.366;2022-11-23T17:48:17;10.70;99.90
20481;DHT22;10399;50.754;3.366;2022-11-23T17:50:45;10.50;99.90
20481;DHT22;10399;50.754;3.366;2022-11-23T17:53:13;10.50;99.90
20481;DHT22;10399;50.754;3.366;2022-11-23T17:55:49;10.60;99.90
20481;DHT22;10399;50.754;3.366;2022-11-23T17:58:16;10.60;99.90
20481;DHT22;10399;50.754;3.366;2022-11-23T18:00:44;10.70;99.90
20481;DHT22;10399;50.754;3.366;2022-11-23T18:03:12;10.80;99.90
20481;DHT22;10399;50.754;3.366;2022-11-23T18:05:39;10.90;99.90
20481;DHT22;10399;50.754;3.366;2022-11-23T18:08:07;10.80;99.90